sensor_id;sensor_type;location;lat;lon;timestamp;pressure;altitude;pressure_sealevel;temperature
42197;BMP280;27866;48.146;17.098;2023-04-25T00:04:00;98779.78;;;15.12
42197;BMP280;27866;48.146;17.098;2023-04-25T00:08:11;98783.00;;;15.07
42197;BMP280;27866;48.146;17.098;2023-04-25T00:12:23;98779.88;;;15.03
42197;BMP280;27866;48.146;17.098;2023-04-25T00:16:34;98775.84;;;15.08
42197;BMP280;27866;48.146;17.098;2023-04-25T00:20:46;98783.09;;;14.97
42197;BMP280;27866;48.146;17.098;2023-04-25T00:24:57;98775.78;;;15.01
42197;BMP280;27866;48.146;17.098;2023-04-25T00:29:11;98774.84;;;15.02
42197;BMP280;27866;48.146;17.098;2023-04-25T00:33:22;98781.47;;;14.96
42197;BMP280;27866;48.146;17.098;2023-04-25T00:37:34;98778.47;;;14.84
42197;BMP280;27866;48.146;17.098;2023-04-25T00:41:45;98774.94;;;14.76
42197;BMP280;27866;48.146;17.098;2023-04-25T00:45:57;98784.50;;;14.67
42197;BMP280;27866;48.146;17.098;2023-04-25T00:50:09;98794.72;;;14.61
42197;BMP280;27866;48.146;17.098;2023-04-25T00:54:21;98793.75;;;14.62
42197;BMP280;27866;48.146;17.098;2023-04-25T00:58:32;98800.22;;;14.58
42197;BMP280;27866;48.146;17.098;2023-04-25T01:02:44;98802.84;;;14.58
42197;BMP280;27866;48.146;17.098;2023-04-25T01:06:56;98797.03;;;14.47
42197;BMP280;27866;48.146;17.098;2023-04-25T01:11:09;98797.56;;;14.50
42197;BMP280;27866;48.146;17.098;2023-04-25T01:15:20;98797.84;;;14.48
42197;BMP280;27866;48.146;17.098;2023-04-25T01:19:31;98804.03;;;14.47
42197;BMP280;27866;48.146;17.098;2023-04-25T01:23:43;98787.59;;;14.29
42197;BMP280;27866;48.146;17.098;2023-04-25T01:27:55;98792.50;;;14.32
42197;BMP280;27866;48.146;17.098;2023-04-25T01:32:07;98789.19;;;14.22
42197;BMP280;27866;48.146;17.098;2023-04-25T01:36:19;98791.13;;;14.20
42197;BMP280;27866;48.146;17.098;2023-04-25T01:40:31;98788.78;;;14.18
42197;BMP280;27866;48.146;17.098;2023-04-25T01:44:44;98787.47;;;14.14
42197;BMP280;27866;48.146;17.098;2023-04-25T01:48:55;98777.63;;;14.08
42197;BMP280;27866;48.146;17.098;2023-04-25T01:53:06;98778.16;;;14.11
42197;BMP280;27866;48.146;17.098;2023-04-25T01:57:20;98775.69;;;14.10
42197;BMP280;27866;48.146;17.098;2023-04-25T02:01:32;98775.03;;;14.08
42197;BMP280;27866;48.146;17.098;2023-04-25T02:05:59;98773.94;;;14.10
42197;BMP280;27866;48.146;17.098;2023-04-25T02:10:12;98776.53;;;14.10
42197;BMP280;27866;48.146;17.098;2023-04-25T02:14:36;98775.19;;;14.06
42197;BMP280;27866;48.146;17.098;2023-04-25T02:18:52;98779.88;;;14.03
42197;BMP280;27866;48.146;17.098;2023-04-25T02:23:04;98773.41;;;14.07
42197;BMP280;27866;48.146;17.098;2023-04-25T02:27:16;98784.50;;;14.09
42197;BMP280;27866;48.146;17.098;2023-04-25T02:31:27;98781.75;;;14.10
42197;BMP280;27866;48.146;17.098;2023-04-25T02:35:38;98774.88;;;14.09
42197;BMP280;27866;48.146;17.098;2023-04-25T02:39:50;98778.16;;;14.11
42197;BMP280;27866;48.146;17.098;2023-04-25T02:44:01;98776.03;;;14.07
42197;BMP280;27866;48.146;17.098;2023-04-25T02:48:12;98776.28;;;14.04
42197;BMP280;27866;48.146;17.098;2023-04-25T02:52:23;98777.34;;;14.11
42197;BMP280;27866;48.146;17.098;2023-04-25T02:56:43;98778.16;;;14.11
42197;BMP280;27866;48.146;17.098;2023-04-25T03:01:00;98771.75;;;14.06
42197;BMP280;27866;48.146;17.098;2023-04-25T03:05:11;98768.81;;;14.01
42197;BMP280;27866;48.146;17.098;2023-04-25T03:09:24;98774.28;;;13.98
42197;BMP280;27866;48.146;17.098;2023-04-25T03:13:36;98771.69;;;13.98
42197;BMP280;27866;48.146;17.098;2023-04-25T03:17:48;98785.00;;;13.95
42197;BMP280;27866;48.146;17.098;2023-04-25T03:22:00;98785.16;;;13.94
42197;BMP280;27866;48.146;17.098;2023-04-25T03:26:11;98782.69;;;13.92
42197;BMP280;27866;48.146;17.098;2023-04-25T03:30:22;98781.16;;;13.99
42197;BMP280;27866;48.146;17.098;2023-04-25T03:34:34;98796.38;;;13.94
42197;BMP280;27866;48.146;17.098;2023-04-25T03:38:45;98793.69;;;13.87
42197;BMP280;27866;48.146;17.098;2023-04-25T03:43:00;98790.41;;;13.85
42197;BMP280;27866;48.146;17.098;2023-04-25T03:47:11;98799.03;;;13.85
42197;BMP280;27866;48.146;17.098;2023-04-25T03:51:22;98803.81;;;13.90
42197;BMP280;27866;48.146;17.098;2023-04-25T03:55:34;98813.91;;;13.92
42197;BMP280;27866;48.146;17.098;2023-04-25T03:59:46;98815.25;;;13.96
42197;BMP280;27866;48.146;17.098;2023-04-25T04:03:59;98809.25;;;13.96
42197;BMP280;27866;48.146;17.098;2023-04-25T04:08:12;98816.91;;;13.97
42197;BMP280;27866;48.146;17.098;2023-04-25T04:12:24;98828.25;;;13.96
42197;BMP280;27866;48.146;17.098;2023-04-25T04:16:36;98829.50;;;14.02
42197;BMP280;27866;48.146;17.098;2023-04-25T04:20:47;98827.53;;;14.04
42197;BMP280;27866;48.146;17.098;2023-04-25T04:24:59;98825.84;;;14.12
42197;BMP280;27866;48.146;17.098;2023-04-25T04:29:46;98819.13;;;14.26
42197;BMP280;27866;48.146;17.098;2023-04-25T04:34:01;98815.81;;;14.34
42197;BMP280;27866;48.146;17.098;2023-04-25T04:38:14;98826.22;;;14.34
42197;BMP280;27866;48.146;17.098;2023-04-25T04:42:26;98817.59;;;14.33
42197;BMP280;27866;48.146;17.098;2023-04-25T04:46:51;98823.75;;;14.32
42197;BMP280;27866;48.146;17.098;2023-04-25T04:51:38;98821.03;;;14.34
42197;BMP280;27866;48.146;17.098;2023-04-25T04:56:12;98826.97;;;14.43
42197;BMP280;27866;48.146;17.098;2023-04-25T05:00:37;98832.19;;;14.43
42197;BMP280;27866;48.146;17.098;2023-04-25T05:05:15;98827.00;;;14.51
42197;BMP280;27866;48.146;17.098;2023-04-25T05:10:02;98829.50;;;14.52
42197;BMP280;27866;48.146;17.098;2023-04-25T05:14:40;98825.31;;;14.59
42197;BMP280;27866;48.146;17.098;2023-04-25T05:19:11;98836.53;;;14.77
42197;BMP280;27866;48.146;17.098;2023-04-25T05:23:33;98839.22;;;14.84
42197;BMP280;27866;48.146;17.098;2023-04-25T05:27:54;98825.25;;;14.93
42197;BMP280;27866;48.146;17.098;2023-04-25T05:32:22;98838.63;;;14.90
42197;BMP280;27866;48.146;17.098;2023-04-25T05:36:35;98830.75;;;14.82
42197;BMP280;27866;48.146;17.098;2023-04-25T05:40:46;98832.13;;;14.77
42197;BMP280;27866;48.146;17.098;2023-04-25T05:45:17;98824.66;;;14.99
42197;BMP280;27866;48.146;17.098;2023-04-25T05:49:41;98832.47;;;14.99
42197;BMP280;27866;48.146;17.098;2023-04-25T05:54:13;98825.31;;;15.01
42197;BMP280;27866;48.146;17.098;2023-04-25T05:58:25;98828.31;;;14.89
42197;BMP280;27866;48.146;17.098;2023-04-25T06:02:38;98828.59;;;15.03
42197;BMP280;27866;48.146;17.098;2023-04-25T06:06:49;98831.16;;;15.20
42197;BMP280;27866;48.146;17.098;2023-04-25T06:11:01;98825.31;;;15.25
42197;BMP280;27866;48.146;17.098;2023-04-25T06:15:12;98831.13;;;15.44
42197;BMP280;27866;48.146;17.098;2023-04-25T06:19:23;98824.28;;;15.51
42197;BMP280;27866;48.146;17.098;2023-04-25T06:23:35;98817.16;;;15.61
42197;BMP280;27866;48.146;17.098;2023-04-25T06:27:49;98819.19;;;15.74
42197;BMP280;27866;48.146;17.098;2023-04-25T06:32:01;98826.66;;;16.02
42197;BMP280;27866;48.146;17.098;2023-04-25T06:36:13;98818.72;;;16.57
42197;BMP280;27866;48.146;17.098;2023-04-25T06:40:25;98812.56;;;19.67
42197;BMP280;27866;48.146;17.098;2023-04-25T06:44:38;98818.00;;;21.69
42197;BMP280;27866;48.146;17.098;2023-04-25T06:48:52;98806.63;;;22.40
42197;BMP280;27866;48.146;17.098;2023-04-25T06:53:04;98808.75;;;22.18
42197;BMP280;27866;48.146;17.098;2023-04-25T06:57:16;98800.50;;;21.88
42197;BMP280;27866;48.146;17.098;2023-04-25T07:01:28;98801.00;;;22.04
42197;BMP280;27866;48.146;17.098;2023-04-25T07:05:40;98795.00;;;21.44
42197;BMP280;27866;48.146;17.098;2023-04-25T07:09:51;98801.56;;;19.22
42197;BMP280;27866;48.146;17.098;2023-04-25T07:14:03;98796.53;;;19.62
42197;BMP280;27866;48.146;17.098;2023-04-25T07:18:14;98780.97;;;20.09
42197;BMP280;27866;48.146;17.098;2023-04-25T07:22:27;98792.16;;;19.27
42197;BMP280;27866;48.146;17.098;2023-04-25T07:26:38;98791.69;;;19.24
42197;BMP280;27866;48.146;17.098;2023-04-25T07:31:15;98791.88;;;19.78
42197;BMP280;27866;48.146;17.098;2023-04-25T07:35:29;98787.41;;;20.82
42197;BMP280;27866;48.146;17.098;2023-04-25T07:39:40;98777.63;;;22.65
42197;BMP280;27866;48.146;17.098;2023-04-25T07:43:51;98783.13;;;22.64
42197;BMP280;27866;48.146;17.098;2023-04-25T07:48:04;98788.44;;;22.12
42197;BMP280;27866;48.146;17.098;2023-04-25T07:52:19;98778.03;;;21.92
42197;BMP280;27866;48.146;17.098;2023-04-25T07:56:38;98775.03;;;22.78
42197;BMP280;27866;48.146;17.098;2023-04-25T08:00:50;98761.28;;;27.26
42197;BMP280;27866;48.146;17.098;2023-04-25T08:05:24;98757.13;;;32.33
42197;BMP280;27866;48.146;17.098;2023-04-25T08:09:44;98749.00;;;32.14
42197;BMP280;27866;48.146;17.098;2023-04-25T08:14:03;98731.03;;;27.05
42197;BMP280;27866;48.146;17.098;2023-04-25T08:18:15;98748.28;;;25.99
42197;BMP280;27866;48.146;17.098;2023-04-25T08:22:30;98744.28;;;28.59
42197;BMP280;27866;48.146;17.098;2023-04-25T08:27:00;98741.00;;;28.84
42197;BMP280;27866;48.146;17.098;2023-04-25T08:31:13;98741.09;;;29.21
42197;BMP280;27866;48.146;17.098;2023-04-25T08:35:37;98754.19;;;32.30
42197;BMP280;27866;48.146;17.098;2023-04-25T08:39:48;98740.53;;;32.41
42197;BMP280;27866;48.146;17.098;2023-04-25T08:44:03;98743.38;;;33.28
42197;BMP280;27866;48.146;17.098;2023-04-25T08:48:17;98714.38;;;32.96
42197;BMP280;27866;48.146;17.098;2023-04-25T08:52:35;98733.06;;;30.31
42197;BMP280;27866;48.146;17.098;2023-04-25T08:56:48;98731.56;;;33.24
42197;BMP280;27866;48.146;17.098;2023-04-25T09:01:00;98734.22;;;33.68
42197;BMP280;27866;48.146;17.098;2023-04-25T09:05:14;98725.63;;;33.13
42197;BMP280;27866;48.146;17.098;2023-04-25T09:09:27;98723.13;;;33.89
42197;BMP280;27866;48.146;17.098;2023-04-25T09:13:39;98720.75;;;34.39
42197;BMP280;27866;48.146;17.098;2023-04-25T09:18:09;98709.09;;;34.16
42197;BMP280;27866;48.146;17.098;2023-04-25T09:22:26;98709.25;;;32.66
42197;BMP280;27866;48.146;17.098;2023-04-25T09:26:38;98699.72;;;28.28
42197;BMP280;27866;48.146;17.098;2023-04-25T09:30:49;98688.75;;;31.62
42197;BMP280;27866;48.146;17.098;2023-04-25T09:35:09;98719.66;;;33.78
42197;BMP280;27866;48.146;17.098;2023-04-25T09:39:21;98714.75;;;35.31
42197;BMP280;27866;48.146;17.098;2023-04-25T09:43:45;98709.56;;;36.35
42197;BMP280;27866;48.146;17.098;2023-04-25T09:48:03;98692.03;;;32.52
42197;BMP280;27866;48.146;17.098;2023-04-25T09:52:22;98710.50;;;36.43
42197;BMP280;27866;48.146;17.098;2023-04-25T09:56:45;98699.72;;;36.79
42197;BMP280;27866;48.146;17.098;2023-04-25T10:01:08;98701.63;;;37.58
42197;BMP280;27866;48.146;17.098;2023-04-25T10:05:32;98695.13;;;38.85
42197;BMP280;27866;48.146;17.098;2023-04-25T10:09:58;98689.22;;;40.22
42197;BMP280;27866;48.146;17.098;2023-04-25T10:14:14;98695.84;;;36.31
42197;BMP280;27866;48.146;17.098;2023-04-25T10:18:27;98686.63;;;39.72
42197;BMP280;27866;48.146;17.098;2023-04-25T10:22:46;98678.78;;;40.95
42197;BMP280;27866;48.146;17.098;2023-04-25T10:26:59;98643.31;;;39.88
42197;BMP280;27866;48.146;17.098;2023-04-25T10:31:10;98647.69;;;32.01
42197;BMP280;27866;48.146;17.098;2023-04-25T10:35:29;98660.47;;;28.82
42197;BMP280;27866;48.146;17.098;2023-04-25T10:39:41;98657.28;;;25.99
42197;BMP280;27866;48.146;17.098;2023-04-25T10:44:00;98659.75;;;24.19
42197;BMP280;27866;48.146;17.098;2023-04-25T10:48:29;98654.31;;;23.16
42197;BMP280;27866;48.146;17.098;2023-04-25T10:52:42;98658.00;;;23.64
42197;BMP280;27866;48.146;17.098;2023-04-25T10:56:53;98665.53;;;25.80
42197;BMP280;27866;48.146;17.098;2023-04-25T11:01:04;98688.69;;;27.59
42197;BMP280;27866;48.146;17.098;2023-04-25T11:05:35;98672.94;;;33.79
42197;BMP280;27866;48.146;17.098;2023-04-25T11:09:47;98683.56;;;35.25
42197;BMP280;27866;48.146;17.098;2023-04-25T11:13:58;98645.66;;;32.32
42197;BMP280;27866;48.146;17.098;2023-04-25T11:18:10;98648.88;;;27.64
42197;BMP280;27866;48.146;17.098;2023-04-25T11:22:22;98651.56;;;30.59
42197;BMP280;27866;48.146;17.098;2023-04-25T11:26:33;98669.47;;;30.28
42197;BMP280;27866;48.146;17.098;2023-04-25T11:30:49;98658.00;;;30.12
42197;BMP280;27866;48.146;17.098;2023-04-25T11:35:01;98646.56;;;30.98
42197;BMP280;27866;48.146;17.098;2023-04-25T11:39:12;98669.91;;;28.15
42197;BMP280;27866;48.146;17.098;2023-04-25T11:43:25;98658.19;;;25.93
42197;BMP280;27866;48.146;17.098;2023-04-25T11:47:37;98667.44;;;24.26
42197;BMP280;27866;48.146;17.098;2023-04-25T11:51:49;98659.44;;;23.60
42197;BMP280;27866;48.146;17.098;2023-04-25T11:56:01;98662.16;;;23.48
42197;BMP280;27866;48.146;17.098;2023-04-25T12:00:21;98670.69;;;26.04
42197;BMP280;27866;48.146;17.098;2023-04-25T12:04:32;98685.31;;;24.01
42197;BMP280;27866;48.146;17.098;2023-04-25T12:09:02;98690.66;;;21.95
42197;BMP280;27866;48.146;17.098;2023-04-25T12:13:23;98684.94;;;21.40
42197;BMP280;27866;48.146;17.098;2023-04-25T12:17:35;98673.38;;;23.37
42197;BMP280;27866;48.146;17.098;2023-04-25T12:21:47;98680.06;;;24.24
42197;BMP280;27866;48.146;17.098;2023-04-25T12:25:59;98693.72;;;23.30
42197;BMP280;27866;48.146;17.098;2023-04-25T12:30:13;98700.66;;;22.31
42197;BMP280;27866;48.146;17.098;2023-04-25T12:34:25;98706.75;;;23.25
42197;BMP280;27866;48.146;17.098;2023-04-25T12:38:39;98689.66;;;27.09
42197;BMP280;27866;48.146;17.098;2023-04-25T12:42:51;98680.44;;;29.49
42197;BMP280;27866;48.146;17.098;2023-04-25T12:47:03;98679.59;;;27.22
42197;BMP280;27866;48.146;17.098;2023-04-25T12:51:14;98677.25;;;24.73
42197;BMP280;27866;48.146;17.098;2023-04-25T12:55:26;98665.69;;;23.23
42197;BMP280;27866;48.146;17.098;2023-04-25T12:59:37;98677.22;;;21.77
42197;BMP280;27866;48.146;17.098;2023-04-25T13:03:49;98692.66;;;21.08
42197;BMP280;27866;48.146;17.098;2023-04-25T13:08:00;98710.00;;;20.50
42197;BMP280;27866;48.146;17.098;2023-04-25T13:12:12;98728.66;;;19.45
42197;BMP280;27866;48.146;17.098;2023-04-25T13:16:23;98739.69;;;18.20
42197;BMP280;27866;48.146;17.098;2023-04-25T13:20:34;98732.19;;;17.58
42197;BMP280;27866;48.146;17.098;2023-04-25T13:24:46;98742.34;;;17.53
42197;BMP280;27866;48.146;17.098;2023-04-25T13:28:57;98727.50;;;18.70
42197;BMP280;27866;48.146;17.098;2023-04-25T13:33:09;98717.22;;;25.54
42197;BMP280;27866;48.146;17.098;2023-04-25T13:37:21;98695.09;;;27.02
42197;BMP280;27866;48.146;17.098;2023-04-25T13:41:34;98704.34;;;24.15
42197;BMP280;27866;48.146;17.098;2023-04-25T13:45:46;98717.56;;;23.79
42197;BMP280;27866;48.146;17.098;2023-04-25T13:49:57;98716.72;;;22.73
42197;BMP280;27866;48.146;17.098;2023-04-25T13:54:08;98714.47;;;21.75
42197;BMP280;27866;48.146;17.098;2023-04-25T13:58:20;98714.00;;;22.29
42197;BMP280;27866;48.146;17.098;2023-04-25T14:02:31;98725.59;;;21.31
42197;BMP280;27866;48.146;17.098;2023-04-25T14:06:43;98724.72;;;20.04
42197;BMP280;27866;48.146;17.098;2023-04-25T14:10:54;98728.19;;;19.42
42197;BMP280;27866;48.146;17.098;2023-04-25T14:15:06;98721.00;;;19.64
42197;BMP280;27866;48.146;17.098;2023-04-25T14:19:18;98728.28;;;21.70
42197;BMP280;27866;48.146;17.098;2023-04-25T14:23:29;98707.84;;;25.17
42197;BMP280;27866;48.146;17.098;2023-04-25T14:27:40;98701.22;;;25.08
42197;BMP280;27866;48.146;17.098;2023-04-25T14:31:52;98693.88;;;23.48
42197;BMP280;27866;48.146;17.098;2023-04-25T14:36:04;98704.75;;;22.71
42197;BMP280;27866;48.146;17.098;2023-04-25T14:40:16;98697.91;;;25.47
42197;BMP280;27866;48.146;17.098;2023-04-25T14:44:28;98710.56;;;27.28
42197;BMP280;27866;48.146;17.098;2023-04-25T14:48:39;98700.25;;;27.64
42197;BMP280;27866;48.146;17.098;2023-04-25T14:52:50;98702.63;;;25.45
42197;BMP280;27866;48.146;17.098;2023-04-25T14:57:03;98716.66;;;22.35
42197;BMP280;27866;48.146;17.098;2023-04-25T15:01:14;98716.28;;;20.96
42197;BMP280;27866;48.146;17.098;2023-04-25T15:05:26;98728.22;;;20.31
42197;BMP280;27866;48.146;17.098;2023-04-25T15:09:38;98740.59;;;19.82
42197;BMP280;27866;48.146;17.098;2023-04-25T15:13:49;98739.41;;;19.22
42197;BMP280;27866;48.146;17.098;2023-04-25T15:18:01;98748.84;;;18.45
42197;BMP280;27866;48.146;17.098;2023-04-25T15:22:13;98759.09;;;18.11
42197;BMP280;27866;48.146;17.098;2023-04-25T15:26:24;98759.53;;;17.93
42197;BMP280;27866;48.146;17.098;2023-04-25T15:30:36;98749.16;;;17.77
42197;BMP280;27866;48.146;17.098;2023-04-25T15:34:48;98747.28;;;17.85
42197;BMP280;27866;48.146;17.098;2023-04-25T15:38:59;98747.41;;;17.92
42197;BMP280;27866;48.146;17.098;2023-04-25T15:43:11;98739.38;;;17.71
42197;BMP280;27866;48.146;17.098;2023-04-25T15:47:25;98732.16;;;17.73
42197;BMP280;27866;48.146;17.098;2023-04-25T15:51:37;98739.09;;;18.10
42197;BMP280;27866;48.146;17.098;2023-04-25T15:55:49;98747.44;;;18.35
42197;BMP280;27866;48.146;17.098;2023-04-25T16:00:09;98757.00;;;18.28
42197;BMP280;27866;48.146;17.098;2023-04-25T16:04:24;98753.72;;;18.05
42197;BMP280;27866;48.146;17.098;2023-04-25T16:08:36;98781.88;;;17.81
42197;BMP280;27866;48.146;17.098;2023-04-25T16:12:48;98777.09;;;17.47
42197;BMP280;27866;48.146;17.098;2023-04-25T16:17:00;98784.88;;;17.10
42197;BMP280;27866;48.146;17.098;2023-04-25T16:21:11;98780.22;;;17.35
42197;BMP280;27866;48.146;17.098;2023-04-25T16:25:26;98779.53;;;17.49
42197;BMP280;27866;48.146;17.098;2023-04-25T16:29:40;98788.22;;;17.41
42197;BMP280;27866;48.146;17.098;2023-04-25T16:33:51;98792.19;;;17.30
42197;BMP280;27866;48.146;17.098;2023-04-25T16:38:03;98776.13;;;17.40
42197;BMP280;27866;48.146;17.098;2023-04-25T16:42:15;98789.63;;;17.59
42197;BMP280;27866;48.146;17.098;2023-04-25T16:46:26;98797.31;;;17.53
42197;BMP280;27866;48.146;17.098;2023-04-25T16:50:37;98810.81;;;17.27
42197;BMP280;27866;48.146;17.098;2023-04-25T16:54:49;98834.91;;;16.99
42197;BMP280;27866;48.146;17.098;2023-04-25T16:59:00;98843.47;;;15.67
42197;BMP280;27866;48.146;17.098;2023-04-25T17:03:12;98860.81;;;14.60
42197;BMP280;27866;48.146;17.098;2023-04-25T17:07:23;98894.81;;;14.25
42197;BMP280;27866;48.146;17.098;2023-04-25T17:11:35;98879.34;;;13.71
42197;BMP280;27866;48.146;17.098;2023-04-25T17:15:46;98892.16;;;13.56
42197;BMP280;27866;48.146;17.098;2023-04-25T17:19:57;98894.00;;;13.37
42197;BMP280;27866;48.146;17.098;2023-04-25T17:24:09;98864.91;;;13.15
42197;BMP280;27866;48.146;17.098;2023-04-25T17:28:20;98857.75;;;13.26
42197;BMP280;27866;48.146;17.098;2023-04-25T17:32:31;98856.94;;;13.26
42197;BMP280;27866;48.146;17.098;2023-04-25T17:36:46;98850.16;;;13.42
42197;BMP280;27866;48.146;17.098;2023-04-25T17:40:58;98855.63;;;13.48
42197;BMP280;27866;48.146;17.098;2023-04-25T17:45:09;98870.03;;;13.43
42197;BMP280;27866;48.146;17.098;2023-04-25T17:49:22;98875.69;;;13.29
42197;BMP280;27866;48.146;17.098;2023-04-25T17:53:34;98879.00;;;13.22
42197;BMP280;27866;48.146;17.098;2023-04-25T17:57:46;98875.28;;;13.15
42197;BMP280;27866;48.146;17.098;2023-04-25T18:01:58;98881.63;;;13.03
42197;BMP280;27866;48.146;17.098;2023-04-25T18:06:10;98892.19;;;12.84
42197;BMP280;27866;48.146;17.098;2023-04-25T18:10:22;98896.44;;;12.75
42197;BMP280;27866;48.146;17.098;2023-04-25T18:14:34;98902.03;;;12.62
42197;BMP280;27866;48.146;17.098;2023-04-25T18:18:47;98903.81;;;12.52
42197;BMP280;27866;48.146;17.098;2023-04-25T18:23:02;98898.03;;;12.49
42197;BMP280;27866;48.146;17.098;2023-04-25T18:27:14;98900.63;;;12.49
42197;BMP280;27866;48.146;17.098;2023-04-25T18:31:25;98912.13;;;12.37
42197;BMP280;27866;48.146;17.098;2023-04-25T18:35:36;98907.06;;;12.36
42197;BMP280;27866;48.146;17.098;2023-04-25T18:39:48;98924.97;;;12.39
42197;BMP280;27866;48.146;17.098;2023-04-25T18:43:59;98930.03;;;12.40
42197;BMP280;27866;48.146;17.098;2023-04-25T18:48:14;98939.72;;;12.47
42197;BMP280;27866;48.146;17.098;2023-04-25T18:52:26;98949.72;;;12.52
42197;BMP280;27866;48.146;17.098;2023-04-25T18:56:37;98956.16;;;12.57
42197;BMP280;27866;48.146;17.098;2023-04-25T19:00:48;98965.72;;;12.66
42197;BMP280;27866;48.146;17.098;2023-04-25T19:04:59;98969.44;;;12.63
42197;BMP280;27866;48.146;17.098;2023-04-25T19:09:11;98988.31;;;12.56
42197;BMP280;27866;48.146;17.098;2023-04-25T19:13:29;98982.91;;;12.48
42197;BMP280;27866;48.146;17.098;2023-04-25T19:17:41;98994.00;;;12.50
42197;BMP280;27866;48.146;17.098;2023-04-25T19:21:53;99004.47;;;12.40
42197;BMP280;27866;48.146;17.098;2023-04-25T19:26:05;98998.59;;;12.38
42197;BMP280;27866;48.146;17.098;2023-04-25T19:30:16;99006.94;;;12.41
42197;BMP280;27866;48.146;17.098;2023-04-25T19:34:27;99014.16;;;12.38
42197;BMP280;27866;48.146;17.098;2023-04-25T19:38:38;99022.91;;;12.28
42197;BMP280;27866;48.146;17.098;2023-04-25T19:42:50;99026.97;;;12.30
42197;BMP280;27866;48.146;17.098;2023-04-25T19:47:01;99032.34;;;12.38
42197;BMP280;27866;48.146;17.098;2023-04-25T19:51:12;99037.25;;;12.31
42197;BMP280;27866;48.146;17.098;2023-04-25T19:55:24;99046.50;;;12.25
42197;BMP280;27866;48.146;17.098;2023-04-25T19:59:35;99049.50;;;12.20
42197;BMP280;27866;48.146;17.098;2023-04-25T20:03:46;99045.66;;;12.15
42197;BMP280;27866;48.146;17.098;2023-04-25T20:08:01;99056.72;;;12.17
42197;BMP280;27866;48.146;17.098;2023-04-25T20:12:13;99060.94;;;12.09
42197;BMP280;27866;48.146;17.098;2023-04-25T20:16:24;99064.97;;;12.02
42197;BMP280;27866;48.146;17.098;2023-04-25T20:20:35;99071.41;;;12.07
42197;BMP280;27866;48.146;17.098;2023-04-25T20:24:47;99079.09;;;12.09
42197;BMP280;27866;48.146;17.098;2023-04-25T20:28:59;99079.56;;;12.23
42197;BMP280;27866;48.146;17.098;2023-04-25T20:33:11;99083.22;;;12.20
42197;BMP280;27866;48.146;17.098;2023-04-25T20:37:22;99081.03;;;12.16
42197;BMP280;27866;48.146;17.098;2023-04-25T20:41:34;99086.50;;;12.22
42197;BMP280;27866;48.146;17.098;2023-04-25T20:45:45;99097.75;;;12.32
42197;BMP280;27866;48.146;17.098;2023-04-25T20:49:57;99100.69;;;12.47
42197;BMP280;27866;48.146;17.098;2023-04-25T20:54:09;99106.09;;;12.55
42197;BMP280;27866;48.146;17.098;2023-04-25T20:58:20;99107.06;;;12.54
42197;BMP280;27866;48.146;17.098;2023-04-25T21:02:31;99109.09;;;12.60
42197;BMP280;27866;48.146;17.098;2023-04-25T21:06:43;99106.34;;;12.52
42197;BMP280;27866;48.146;17.098;2023-04-25T21:10:54;99109.66;;;12.34
42197;BMP280;27866;48.146;17.098;2023-04-25T21:15:06;99121.72;;;12.16
42197;BMP280;27866;48.146;17.098;2023-04-25T21:19:18;99127.94;;;12.04
42197;BMP280;27866;48.146;17.098;2023-04-25T21:23:29;99128.97;;;11.92
42197;BMP280;27866;48.146;17.098;2023-04-25T21:27:41;99131.63;;;11.82
42197;BMP280;27866;48.146;17.098;2023-04-25T21:31:52;99133.34;;;11.72
42197;BMP280;27866;48.146;17.098;2023-04-25T21:36:03;99139.16;;;11.65
42197;BMP280;27866;48.146;17.098;2023-04-25T21:40:15;99147.31;;;11.60
42197;BMP280;27866;48.146;17.098;2023-04-25T21:44:26;99146.66;;;11.48
42197;BMP280;27866;48.146;17.098;2023-04-25T21:48:40;99152.72;;;11.38
42197;BMP280;27866;48.146;17.098;2023-04-25T21:52:51;99162.06;;;11.30
42197;BMP280;27866;48.146;17.098;2023-04-25T21:57:04;99167.38;;;11.17
42197;BMP280;27866;48.146;17.098;2023-04-25T22:01:15;99174.00;;;11.11
42197;BMP280;27866;48.146;17.098;2023-04-25T22:05:26;99182.25;;;11.05
42197;BMP280;27866;48.146;17.098;2023-04-25T22:09:39;99182.47;;;11.02
42197;BMP280;27866;48.146;17.098;2023-04-25T22:13:50;99191.28;;;11.00
42197;BMP280;27866;48.146;17.098;2023-04-25T22:18:02;99200.72;;;11.00
42197;BMP280;27866;48.146;17.098;2023-04-25T22:22:14;99212.41;;;10.95
42197;BMP280;27866;48.146;17.098;2023-04-25T22:26:25;99216.28;;;10.90
42197;BMP280;27866;48.146;17.098;2023-04-25T22:30:37;99220.28;;;10.83
42197;BMP280;27866;48.146;17.098;2023-04-25T22:34:48;99226.88;;;10.76
42197;BMP280;27866;48.146;17.098;2023-04-25T22:38:59;99227.56;;;10.68
42197;BMP280;27866;48.146;17.098;2023-04-25T22:43:10;99236.50;;;10.64
42197;BMP280;27866;48.146;17.098;2023-04-25T22:47:22;99238.41;;;10.62
42197;BMP280;27866;48.146;17.098;2023-04-25T22:51:34;99242.53;;;10.64
42197;BMP280;27866;48.146;17.098;2023-04-25T22:55:54;99239.09;;;10.64
42197;BMP280;27866;48.146;17.098;2023-04-25T23:00:08;99247.34;;;10.58
42197;BMP280;27866;48.146;17.098;2023-04-25T23:04:25;99241.81;;;10.52
42197;BMP280;27866;48.146;17.098;2023-04-25T23:08:36;99247.22;;;10.49
42197;BMP280;27866;48.146;17.098;2023-04-25T23:12:48;99250.88;;;10.46
42197;BMP280;27866;48.146;17.098;2023-04-25T23:16:59;99255.47;;;10.54
42197;BMP280;27866;48.146;17.098;2023-04-25T23:21:10;99258.66;;;10.68
42197;BMP280;27866;48.146;17.098;2023-04-25T23:25:22;99262.53;;;10.94
42197;BMP280;27866;48.146;17.098;2023-04-25T23:29:34;99266.03;;;11.14
42197;BMP280;27866;48.146;17.098;2023-04-25T23:33:46;99275.84;;;11.32
42197;BMP280;27866;48.146;17.098;2023-04-25T23:37:57;99278.66;;;11.40
42197;BMP280;27866;48.146;17.098;2023-04-25T23:42:08;99267.47;;;11.40
42197;BMP280;27866;48.146;17.098;2023-04-25T23:46:19;99274.63;;;11.47
42197;BMP280;27866;48.146;17.098;2023-04-25T23:50:31;99267.31;;;11.52
42197;BMP280;27866;48.146;17.098;2023-04-25T23:54:42;99270.53;;;11.44
42197;BMP280;27866;48.146;17.098;2023-04-25T23:58:53;99275.00;;;11.43
